sensor_id;sensor_type;location;lat;lon;timestamp;temperature;humidity
35920;DHT22;36160;53.370;-6.196;2023-01-20T00:01:28;0.50;99.90
35920;DHT22;36160;53.370;-6.196;2023-01-20T00:03:55;0.50;99.90
35920;DHT22;36160;53.370;-6.196;2023-01-20T00:06:21;0.40;99.90
35920;DHT22;36160;53.370;-6.196;2023-01-20T00:08:51;0.40;99.90
35920;DHT22;36160;53.370;-6.196;2023-01-20T00:11:17;0.50;99.90
35920;DHT22;36160;53.370;-6.196;2023-01-20T00:13:43;0.50;99.90
35920;DHT22;36160;53.370;-6.196;2023-01-20T00:16:09;0.50;99.90
35920;DHT22;36160;53.370;-6.196;2023-01-20T00:18:36;0.40;99.90
35920;DHT22;36160;53.370;-6.196;2023-01-20T00:21:09;0.40;99.90
35920;DHT22;36160;53.370;-6.196;2023-01-20T00:23:35;0.40;99.90
35920;DHT22;36160;53.370;-6.196;2023-01-20T00:26:12;0.60;99.90
35920;DHT22;36160;53.370;-6.196;2023-01-20T00:28:38;0.50;99.90
35920;DHT22;36160;53.370;-6.196;2023-01-20T00:31:21;0.60;99.90
35920;DHT22;36160;53.370;-6.196;2023-01-20T00:33:48;0.50;99.90
35920;DHT22;36160;53.370;-6.196;2023-01-20T00:36:16;0.50;99.90
35920;DHT22;36160;53.370;-6.196;2023-01-20T00:38:42;0.60;99.90
35920;DHT22;36160;53.370;-6.196;2023-01-20T00:41:08;0.50;99.90
35920;DHT22;36160;53.370;-6.196;2023-01-20T00:43:35;0.70;99.90
35920;DHT22;36160;53.370;-6.196;2023-01-20T00:46:01;0.60;99.90
35920;DHT22;36160;53.370;-6.196;2023-01-20T00:48:26;0.60;99.90
35920;DHT22;36160;53.370;-6.196;2023-01-20T00:50:52;0.70;99.90
35920;DHT22;36160;53.370;-6.196;2023-01-20T00:53:18;0.50;99.90
35920;DHT22;36160;53.370;-6.196;2023-01-20T00:55:44;0.60;99.90
35920;DHT22;36160;53.370;-6.196;2023-01-20T00:58:10;0.70;99.90
35920;DHT22;36160;53.370;-6.196;2023-01-20T01:00:35;0.60;99.90
35920;DHT22;36160;53.370;-6.196;2023-01-20T01:03:02;0.50;99.90
35920;DHT22;36160;53.370;-6.196;2023-01-20T01:05:28;0.60;99.90
35920;DHT22;36160;53.370;-6.196;2023-01-20T01:07:53;0.60;99.90
35920;DHT22;36160;53.370;-6.196;2023-01-20T01:10:19;0.60;99.90
35920;DHT22;36160;53.370;-6.196;2023-01-20T01:12:45;0.50;99.90
35920;DHT22;36160;53.370;-6.196;2023-01-20T01:15:11;0.60;99.90
35920;DHT22;36160;53.370;-6.196;2023-01-20T01:17:37;0.50;99.90
35920;DHT22;36160;53.370;-6.196;2023-01-20T01:20:03;0.50;99.90
35920;DHT22;36160;53.370;-6.196;2023-01-20T01:22:30;0.60;99.90
35920;DHT22;36160;53.370;-6.196;2023-01-20T01:24:57;0.50;99.90
35920;DHT22;36160;53.370;-6.196;2023-01-20T01:27:22;0.70;99.90
35920;DHT22;36160;53.370;-6.196;2023-01-20T01:29:48;0.50;99.90
35920;DHT22;36160;53.370;-6.196;2023-01-20T01:32:14;0.60;99.90
35920;DHT22;36160;53.370;-6.196;2023-01-20T01:34:39;0.60;99.90
35920;DHT22;36160;53.370;-6.196;2023-01-20T01:37:05;0.40;99.90
35920;DHT22;36160;53.370;-6.196;2023-01-20T01:39:31;0.40;99.90
35920;DHT22;36160;53.370;-6.196;2023-01-20T01:41:56;0.50;99.90
35920;DHT22;36160;53.370;-6.196;2023-01-20T01:44:25;0.40;99.90
35920;DHT22;36160;53.370;-6.196;2023-01-20T01:46:51;0.40;99.90
35920;DHT22;36160;53.370;-6.196;2023-01-20T01:49:27;0.50;99.90
35920;DHT22;36160;53.370;-6.196;2023-01-20T01:52:00;0.30;99.90
35920;DHT22;36160;53.370;-6.196;2023-01-20T01:54:30;0.50;99.90
35920;DHT22;36160;53.370;-6.196;2023-01-20T01:56:58;0.40;99.90
35920;DHT22;36160;53.370;-6.196;2023-01-20T01:59:24;0.50;99.90
35920;DHT22;36160;53.370;-6.196;2023-01-20T02:01:51;0.30;99.90
35920;DHT22;36160;53.370;-6.196;2023-01-20T02:04:20;0.50;99.90
35920;DHT22;36160;53.370;-6.196;2023-01-20T02:07:10;0.30;99.90
35920;DHT22;36160;53.370;-6.196;2023-01-20T02:09:36;0.40;99.90
35920;DHT22;36160;53.370;-6.196;2023-01-20T02:12:05;0.30;99.90
35920;DHT22;36160;53.370;-6.196;2023-01-20T02:14:37;0.30;99.90
35920;DHT22;36160;53.370;-6.196;2023-01-20T02:35:34;0.30;99.90
35920;DHT22;36160;53.370;-6.196;2023-01-20T02:40:53;0.40;99.90
35920;DHT22;36160;53.370;-6.196;2023-01-20T02:43:26;0.30;99.90
35920;DHT22;36160;53.370;-6.196;2023-01-20T02:46:07;0.40;99.90
35920;DHT22;36160;53.370;-6.196;2023-01-20T02:48:49;0.30;99.90
35920;DHT22;36160;53.370;-6.196;2023-01-20T02:51:44;0.50;99.90
35920;DHT22;36160;53.370;-6.196;2023-01-20T02:54:13;0.30;99.90
35920;DHT22;36160;53.370;-6.196;2023-01-20T02:56:40;0.40;99.90
35920;DHT22;36160;53.370;-6.196;2023-01-20T02:59:13;0.30;99.90
35920;DHT22;36160;53.370;-6.196;2023-01-20T03:01:44;0.30;99.90
35920;DHT22;36160;53.370;-6.196;2023-01-20T03:04:12;0.40;99.90
35920;DHT22;36160;53.370;-6.196;2023-01-20T03:06:45;0.40;99.90
35920;DHT22;36160;53.370;-6.196;2023-01-20T03:09:17;0.40;99.90
35920;DHT22;36160;53.370;-6.196;2023-01-20T03:11:52;0.50;99.90
35920;DHT22;36160;53.370;-6.196;2023-01-20T03:14:19;0.40;99.90
35920;DHT22;36160;53.370;-6.196;2023-01-20T03:16:45;0.30;99.90
35920;DHT22;36160;53.370;-6.196;2023-01-20T03:19:13;0.40;99.90
35920;DHT22;36160;53.370;-6.196;2023-01-20T03:21:40;0.40;99.90
35920;DHT22;36160;53.370;-6.196;2023-01-20T03:24:06;0.20;99.90
35920;DHT22;36160;53.370;-6.196;2023-01-20T03:26:32;0.30;99.90
35920;DHT22;36160;53.370;-6.196;2023-01-20T03:29:03;0.20;99.90
35920;DHT22;36160;53.370;-6.196;2023-01-20T03:31:42;0.40;99.90
35920;DHT22;36160;53.370;-6.196;2023-01-20T03:34:11;0.40;99.90
35920;DHT22;36160;53.370;-6.196;2023-01-20T03:36:39;0.20;99.90
35920;DHT22;36160;53.370;-6.196;2023-01-20T03:39:06;0.30;99.90
35920;DHT22;36160;53.370;-6.196;2023-01-20T03:47:13;0.30;99.90
35920;DHT22;36160;53.370;-6.196;2023-01-20T03:49:57;0.20;99.90
35920;DHT22;36160;53.370;-6.196;2023-01-20T03:54:59;0.20;99.90
35920;DHT22;36160;53.370;-6.196;2023-01-20T03:57:39;0.40;99.90
35920;DHT22;36160;53.370;-6.196;2023-01-20T04:00:08;0.30;99.90
35920;DHT22;36160;53.370;-6.196;2023-01-20T04:02:36;0.30;99.90
35920;DHT22;36160;53.370;-6.196;2023-01-20T04:05:03;0.40;99.90
35920;DHT22;36160;53.370;-6.196;2023-01-20T04:07:30;0.20;99.90
35920;DHT22;36160;53.370;-6.196;2023-01-20T04:10:02;0.20;99.90
35920;DHT22;36160;53.370;-6.196;2023-01-20T04:12:29;0.20;99.90
35920;DHT22;36160;53.370;-6.196;2023-01-20T04:14:54;0.40;99.90
35920;DHT22;36160;53.370;-6.196;2023-01-20T04:17:21;0.20;99.90
35920;DHT22;36160;53.370;-6.196;2023-01-20T04:19:50;0.30;99.90
35920;DHT22;36160;53.370;-6.196;2023-01-20T04:24:58;0.20;99.90
35920;DHT22;36160;53.370;-6.196;2023-01-20T04:27:26;0.40;99.90
35920;DHT22;36160;53.370;-6.196;2023-01-20T04:29:51;0.20;99.90
35920;DHT22;36160;53.370;-6.196;2023-01-20T04:32:17;0.20;99.90
35920;DHT22;36160;53.370;-6.196;2023-01-20T04:34:43;0.30;99.90
35920;DHT22;36160;53.370;-6.196;2023-01-20T04:37:08;0.10;99.90
35920;DHT22;36160;53.370;-6.196;2023-01-20T04:39:35;0.30;99.90
35920;DHT22;36160;53.370;-6.196;2023-01-20T04:42:01;0.30;99.90
35920;DHT22;36160;53.370;-6.196;2023-01-20T04:44:27;0.20;99.90
35920;DHT22;36160;53.370;-6.196;2023-01-20T04:46:56;0.20;99.90
35920;DHT22;36160;53.370;-6.196;2023-01-20T04:49:24;0.20;99.90
35920;DHT22;36160;53.370;-6.196;2023-01-20T04:51:49;0.20;99.90
35920;DHT22;36160;53.370;-6.196;2023-01-20T04:54:15;0.10;99.90
35920;DHT22;36160;53.370;-6.196;2023-01-20T04:56:41;0.20;99.90
35920;DHT22;36160;53.370;-6.196;2023-01-20T04:59:07;0.10;99.90
35920;DHT22;36160;53.370;-6.196;2023-01-20T05:01:33;0.20;99.90
35920;DHT22;36160;53.370;-6.196;2023-01-20T05:03:58;0.30;99.90
35920;DHT22;36160;53.370;-6.196;2023-01-20T05:06:24;0.10;99.90
35920;DHT22;36160;53.370;-6.196;2023-01-20T05:08:50;0.30;99.90
35920;DHT22;36160;53.370;-6.196;2023-01-20T05:11:16;0.30;99.90
35920;DHT22;36160;53.370;-6.196;2023-01-20T05:13:41;0.10;99.90
35920;DHT22;36160;53.370;-6.196;2023-01-20T05:16:08;0.30;99.90
35920;DHT22;36160;53.370;-6.196;2023-01-20T05:18:35;0.10;99.90
35920;DHT22;36160;53.370;-6.196;2023-01-20T05:21:03;0.00;99.90
35920;DHT22;36160;53.370;-6.196;2023-01-20T05:23:29;0.20;99.90
35920;DHT22;36160;53.370;-6.196;2023-01-20T05:25:54;0.10;99.90
35920;DHT22;36160;53.370;-6.196;2023-01-20T05:28:20;0.10;99.90
35920;DHT22;36160;53.370;-6.196;2023-01-20T05:30:46;0.20;99.90
35920;DHT22;36160;53.370;-6.196;2023-01-20T05:33:13;0.00;99.90
35920;DHT22;36160;53.370;-6.196;2023-01-20T05:35:38;0.00;99.90
35920;DHT22;36160;53.370;-6.196;2023-01-20T05:38:04;0.00;99.90
35920;DHT22;36160;53.370;-6.196;2023-01-20T05:40:30;0.10;99.90
35920;DHT22;36160;53.370;-6.196;2023-01-20T05:42:59;0.10;99.90
35920;DHT22;36160;53.370;-6.196;2023-01-20T05:45:25;0.00;99.90
35920;DHT22;36160;53.370;-6.196;2023-01-20T05:47:58;0.10;99.90
35920;DHT22;36160;53.370;-6.196;2023-01-20T05:50:25;0.10;99.90
35920;DHT22;36160;53.370;-6.196;2023-01-20T05:52:51;-0.10;99.90
35920;DHT22;36160;53.370;-6.196;2023-01-20T05:55:17;-0.10;99.90
35920;DHT22;36160;53.370;-6.196;2023-01-20T05:57:43;-0.10;99.90
35920;DHT22;36160;53.370;-6.196;2023-01-20T06:00:09;-0.20;99.90
35920;DHT22;36160;53.370;-6.196;2023-01-20T06:02:35;-0.10;99.90
35920;DHT22;36160;53.370;-6.196;2023-01-20T06:05:01;0.00;99.90
35920;DHT22;36160;53.370;-6.196;2023-01-20T06:07:28;0.00;99.90
35920;DHT22;36160;53.370;-6.196;2023-01-20T06:09:54;-0.20;99.90
35920;DHT22;36160;53.370;-6.196;2023-01-20T06:12:19;-0.10;99.90
35920;DHT22;36160;53.370;-6.196;2023-01-20T06:14:45;-0.10;99.90
35920;DHT22;36160;53.370;-6.196;2023-01-20T06:17:11;-0.30;99.90
35920;DHT22;36160;53.370;-6.196;2023-01-20T06:19:36;-0.30;99.90
35920;DHT22;36160;53.370;-6.196;2023-01-20T06:22:03;-0.30;99.90
35920;DHT22;36160;53.370;-6.196;2023-01-20T06:24:28;-0.40;99.90
35920;DHT22;36160;53.370;-6.196;2023-01-20T06:26:54;-0.40;99.90
35920;DHT22;36160;53.370;-6.196;2023-01-20T06:29:20;-0.60;99.90
35920;DHT22;36160;53.370;-6.196;2023-01-20T06:31:46;-0.50;99.90
35920;DHT22;36160;53.370;-6.196;2023-01-20T06:34:12;-0.60;99.90
35920;DHT22;36160;53.370;-6.196;2023-01-20T06:36:38;-0.40;99.90
35920;DHT22;36160;53.370;-6.196;2023-01-20T06:39:04;-0.60;99.90
35920;DHT22;36160;53.370;-6.196;2023-01-20T06:41:29;-0.50;99.90
35920;DHT22;36160;53.370;-6.196;2023-01-20T06:43:55;-0.70;99.90
35920;DHT22;36160;53.370;-6.196;2023-01-20T06:46:21;-0.50;99.90
35920;DHT22;36160;53.370;-6.196;2023-01-20T06:48:47;-0.60;99.90
35920;DHT22;36160;53.370;-6.196;2023-01-20T06:51:17;-0.50;99.90
35920;DHT22;36160;53.370;-6.196;2023-01-20T06:53:43;-0.50;99.90
35920;DHT22;36160;53.370;-6.196;2023-01-20T06:56:11;-0.60;99.90
35920;DHT22;36160;53.370;-6.196;2023-01-20T06:58:37;-0.60;99.90
35920;DHT22;36160;53.370;-6.196;2023-01-20T07:01:13;-0.50;99.90
35920;DHT22;36160;53.370;-6.196;2023-01-20T07:03:43;-0.60;99.90
35920;DHT22;36160;53.370;-6.196;2023-01-20T07:06:27;-0.60;99.90
35920;DHT22;36160;53.370;-6.196;2023-01-20T07:08:54;-0.60;99.90
35920;DHT22;36160;53.370;-6.196;2023-01-20T07:11:20;-0.60;99.90
35920;DHT22;36160;53.370;-6.196;2023-01-20T07:13:46;-0.50;99.90
35920;DHT22;36160;53.370;-6.196;2023-01-20T07:16:12;-0.50;99.90
35920;DHT22;36160;53.370;-6.196;2023-01-20T07:18:38;-0.50;99.90
35920;DHT22;36160;53.370;-6.196;2023-01-20T07:21:04;-0.60;99.90
35920;DHT22;36160;53.370;-6.196;2023-01-20T07:23:30;-0.60;99.90
35920;DHT22;36160;53.370;-6.196;2023-01-20T07:26:03;-0.80;99.90
35920;DHT22;36160;53.370;-6.196;2023-01-20T07:28:30;-0.70;99.90
35920;DHT22;36160;53.370;-6.196;2023-01-20T07:31:02;-0.70;99.90
35920;DHT22;36160;53.370;-6.196;2023-01-20T07:33:29;-0.80;99.90
35920;DHT22;36160;53.370;-6.196;2023-01-20T07:35:55;-0.60;99.90
35920;DHT22;36160;53.370;-6.196;2023-01-20T07:38:21;-0.80;99.90
35920;DHT22;36160;53.370;-6.196;2023-01-20T07:40:46;-0.80;99.90
35920;DHT22;36160;53.370;-6.196;2023-01-20T07:43:12;-0.90;99.90
35920;DHT22;36160;53.370;-6.196;2023-01-20T07:45:38;-0.70;99.90
35920;DHT22;36160;53.370;-6.196;2023-01-20T07:48:04;-0.80;99.90
35920;DHT22;36160;53.370;-6.196;2023-01-20T07:50:33;-0.80;99.90
35920;DHT22;36160;53.370;-6.196;2023-01-20T07:52:58;-0.80;99.90
35920;DHT22;36160;53.370;-6.196;2023-01-20T07:55:24;-0.70;99.90
35920;DHT22;36160;53.370;-6.196;2023-01-20T07:57:50;-0.90;99.90
35920;DHT22;36160;53.370;-6.196;2023-01-20T08:00:17;-1.00;99.90
35920;DHT22;36160;53.370;-6.196;2023-01-20T08:02:43;-0.90;99.90
35920;DHT22;36160;53.370;-6.196;2023-01-20T08:05:09;-0.70;99.90
35920;DHT22;36160;53.370;-6.196;2023-01-20T08:07:35;-0.90;99.90
35920;DHT22;36160;53.370;-6.196;2023-01-20T08:10:00;-0.80;99.90
35920;DHT22;36160;53.370;-6.196;2023-01-20T08:12:27;-0.80;99.90
35920;DHT22;36160;53.370;-6.196;2023-01-20T08:14:54;-0.80;99.90
35920;DHT22;36160;53.370;-6.196;2023-01-20T08:17:20;-1.00;99.90
35920;DHT22;36160;53.370;-6.196;2023-01-20T08:19:46;-1.00;99.90
35920;DHT22;36160;53.370;-6.196;2023-01-20T08:22:11;-0.80;99.90
35920;DHT22;36160;53.370;-6.196;2023-01-20T08:24:37;-0.80;99.90
35920;DHT22;36160;53.370;-6.196;2023-01-20T08:27:03;-0.90;99.90
35920;DHT22;36160;53.370;-6.196;2023-01-20T08:29:29;-1.00;99.90
35920;DHT22;36160;53.370;-6.196;2023-01-20T08:32:01;-1.00;99.90
35920;DHT22;36160;53.370;-6.196;2023-01-20T08:34:27;-0.80;99.90
35920;DHT22;36160;53.370;-6.196;2023-01-20T08:36:53;-0.90;99.90
35920;DHT22;36160;53.370;-6.196;2023-01-20T08:39:23;-0.70;99.90
35920;DHT22;36160;53.370;-6.196;2023-01-20T08:41:49;-0.90;99.90
35920;DHT22;36160;53.370;-6.196;2023-01-20T08:44:17;-0.90;99.90
35920;DHT22;36160;53.370;-6.196;2023-01-20T08:46:43;-0.90;99.90
35920;DHT22;36160;53.370;-6.196;2023-01-20T08:49:13;-0.80;99.90
35920;DHT22;36160;53.370;-6.196;2023-01-20T08:51:39;-0.70;99.90
35920;DHT22;36160;53.370;-6.196;2023-01-20T08:54:05;-0.80;99.90
35920;DHT22;36160;53.370;-6.196;2023-01-20T08:56:31;-0.70;99.90
35920;DHT22;36160;53.370;-6.196;2023-01-20T08:58:58;-0.70;99.90
35920;DHT22;36160;53.370;-6.196;2023-01-20T09:01:31;-0.60;99.90
35920;DHT22;36160;53.370;-6.196;2023-01-20T09:03:58;-0.50;99.90
35920;DHT22;36160;53.370;-6.196;2023-01-20T09:06:24;-0.50;99.90
35920;DHT22;36160;53.370;-6.196;2023-01-20T09:08:51;-0.70;99.90
35920;DHT22;36160;53.370;-6.196;2023-01-20T09:11:20;-0.50;99.90
35920;DHT22;36160;53.370;-6.196;2023-01-20T09:13:46;-0.60;99.90
35920;DHT22;36160;53.370;-6.196;2023-01-20T09:16:13;-0.60;99.90
35920;DHT22;36160;53.370;-6.196;2023-01-20T09:18:42;-0.60;99.90
35920;DHT22;36160;53.370;-6.196;2023-01-20T09:21:08;-0.60;99.90
35920;DHT22;36160;53.370;-6.196;2023-01-20T09:23:36;-0.50;99.90
35920;DHT22;36160;53.370;-6.196;2023-01-20T09:26:04;-0.30;99.90
35920;DHT22;36160;53.370;-6.196;2023-01-20T09:28:32;-0.30;99.90
35920;DHT22;36160;53.370;-6.196;2023-01-20T09:31:02;-0.40;99.90
35920;DHT22;36160;53.370;-6.196;2023-01-20T09:33:29;-0.40;99.90
35920;DHT22;36160;53.370;-6.196;2023-01-20T09:35:56;-0.20;99.90
35920;DHT22;36160;53.370;-6.196;2023-01-20T09:38:23;-0.20;99.90
35920;DHT22;36160;53.370;-6.196;2023-01-20T09:41:27;-0.10;99.90
35920;DHT22;36160;53.370;-6.196;2023-01-20T09:44:27;0.00;99.90
35920;DHT22;36160;53.370;-6.196;2023-01-20T09:47:27;-0.10;99.90
35920;DHT22;36160;53.370;-6.196;2023-01-20T09:50:09;0.00;99.90
35920;DHT22;36160;53.370;-6.196;2023-01-20T09:53:05;0.00;99.90
35920;DHT22;36160;53.370;-6.196;2023-01-20T10:00:39;0.30;99.90
35920;DHT22;36160;53.370;-6.196;2023-01-20T10:05:53;0.30;99.90
35920;DHT22;36160;53.370;-6.196;2023-01-20T10:08:25;0.40;99.90
35920;DHT22;36160;53.370;-6.196;2023-01-20T10:11:15;0.60;99.90
35920;DHT22;36160;53.370;-6.196;2023-01-20T10:13:51;0.50;99.90
35920;DHT22;36160;53.370;-6.196;2023-01-20T10:16:38;0.70;99.90
35920;DHT22;36160;53.370;-6.196;2023-01-20T10:19:12;0.80;99.90
35920;DHT22;36160;53.370;-6.196;2023-01-20T10:21:47;0.70;99.90
35920;DHT22;36160;53.370;-6.196;2023-01-20T10:24:23;0.80;99.90
35920;DHT22;36160;53.370;-6.196;2023-01-20T10:27:02;1.10;99.90
35920;DHT22;36160;53.370;-6.196;2023-01-20T10:29:48;1.20;99.90
35920;DHT22;36160;53.370;-6.196;2023-01-20T10:32:22;1.10;99.90
35920;DHT22;36160;53.370;-6.196;2023-01-20T10:34:52;1.30;99.90
35920;DHT22;36160;53.370;-6.196;2023-01-20T10:37:18;1.40;99.90
35920;DHT22;36160;53.370;-6.196;2023-01-20T10:39:50;1.60;99.90
35920;DHT22;36160;53.370;-6.196;2023-01-20T10:42:18;1.50;99.90
35920;DHT22;36160;53.370;-6.196;2023-01-20T10:44:46;1.60;99.90
35920;DHT22;36160;53.370;-6.196;2023-01-20T10:50:46;1.90;99.90
35920;DHT22;36160;53.370;-6.196;2023-01-20T10:56:31;2.20;99.90
35920;DHT22;36160;53.370;-6.196;2023-01-20T10:59:03;2.20;99.90
35920;DHT22;36160;53.370;-6.196;2023-01-20T11:01:30;2.20;99.90
35920;DHT22;36160;53.370;-6.196;2023-01-20T11:03:56;2.40;99.90
35920;DHT22;36160;53.370;-6.196;2023-01-20T11:06:24;2.40;99.90
35920;DHT22;36160;53.370;-6.196;2023-01-20T11:08:52;2.60;99.90
35920;DHT22;36160;53.370;-6.196;2023-01-20T11:11:20;2.60;99.90
35920;DHT22;36160;53.370;-6.196;2023-01-20T11:13:48;2.90;99.90
35920;DHT22;36160;53.370;-6.196;2023-01-20T11:16:20;2.90;99.90
35920;DHT22;36160;53.370;-6.196;2023-01-20T11:19:01;3.10;99.90
35920;DHT22;36160;53.370;-6.196;2023-01-20T11:21:30;3.20;99.90
35920;DHT22;36160;53.370;-6.196;2023-01-20T11:23:58;3.10;99.90
35920;DHT22;36160;53.370;-6.196;2023-01-20T11:26:33;3.30;99.90
35920;DHT22;36160;53.370;-6.196;2023-01-20T11:29:26;3.30;99.90
35920;DHT22;36160;53.370;-6.196;2023-01-20T11:31:54;3.50;99.90
35920;DHT22;36160;53.370;-6.196;2023-01-20T11:34:29;3.40;99.90
35920;DHT22;36160;53.370;-6.196;2023-01-20T11:39:55;3.60;99.90
35920;DHT22;36160;53.370;-6.196;2023-01-20T11:42:40;3.70;99.90
35920;DHT22;36160;53.370;-6.196;2023-01-20T11:45:30;3.90;99.90
35920;DHT22;36160;53.370;-6.196;2023-01-20T11:48:01;3.80;99.90
35920;DHT22;36160;53.370;-6.196;2023-01-20T11:50:33;3.80;99.90
35920;DHT22;36160;53.370;-6.196;2023-01-20T11:55:55;4.00;99.90
35920;DHT22;36160;53.370;-6.196;2023-01-20T11:58:26;4.00;99.90
35920;DHT22;36160;53.370;-6.196;2023-01-20T12:00:58;4.10;99.90
35920;DHT22;36160;53.370;-6.196;2023-01-20T12:06:05;4.30;99.90
35920;DHT22;36160;53.370;-6.196;2023-01-20T12:11:08;4.40;99.90
35920;DHT22;36160;53.370;-6.196;2023-01-20T12:13:43;4.50;99.90
35920;DHT22;36160;53.370;-6.196;2023-01-20T12:16:32;4.50;89.00
35920;DHT22;36160;53.370;-6.196;2023-01-20T12:19:03;4.60;75.60
35920;DHT22;36160;53.370;-6.196;2023-01-20T12:21:34;4.60;61.80
35920;DHT22;36160;53.370;-6.196;2023-01-20T12:24:10;4.70;55.40
35920;DHT22;36160;53.370;-6.196;2023-01-20T12:26:38;4.70;34.80
35920;DHT22;36160;53.370;-6.196;2023-01-20T12:29:15;4.80;36.90
35920;DHT22;36160;53.370;-6.196;2023-01-20T12:31:46;4.90;42.90
35920;DHT22;36160;53.370;-6.196;2023-01-20T12:34:26;4.90;43.40
35920;DHT22;36160;53.370;-6.196;2023-01-20T12:37:10;5.00;27.00
35920;DHT22;36160;53.370;-6.196;2023-01-20T12:39:41;5.10;20.90
35920;DHT22;36160;53.370;-6.196;2023-01-20T12:44:44;5.20;1.00
35920;DHT22;36160;53.370;-6.196;2023-01-20T12:53:39;5.20;1.00
35920;DHT22;36160;53.370;-6.196;2023-01-20T12:59:35;5.40;1.00
35920;DHT22;36160;53.370;-6.196;2023-01-20T13:02:29;5.30;1.00
35920;DHT22;36160;53.370;-6.196;2023-01-20T13:13:36;5.70;46.90
35920;DHT22;36160;53.370;-6.196;2023-01-20T13:16:30;5.60;61.40
35920;DHT22;36160;53.370;-6.196;2023-01-20T13:19:22;5.60;69.40
35920;DHT22;36160;53.370;-6.196;2023-01-20T13:21:50;5.70;83.10
35920;DHT22;36160;53.370;-6.196;2023-01-20T13:24:18;5.80;90.00
35920;DHT22;36160;53.370;-6.196;2023-01-20T13:26:54;5.70;85.90
35920;DHT22;36160;53.370;-6.196;2023-01-20T13:32:34;5.80;78.50
35920;DHT22;36160;53.370;-6.196;2023-01-20T13:38:00;5.80;78.30
35920;DHT22;36160;53.370;-6.196;2023-01-20T13:45:46;5.80;71.30
35920;DHT22;36160;53.370;-6.196;2023-01-20T13:50:42;5.90;59.90
35920;DHT22;36160;53.370;-6.196;2023-01-20T13:53:23;5.90;59.00
35920;DHT22;36160;53.370;-6.196;2023-01-20T13:55:51;5.80;60.70
35920;DHT22;36160;53.370;-6.196;2023-01-20T14:00:44;5.90;51.50
35920;DHT22;36160;53.370;-6.196;2023-01-20T14:05:47;5.80;66.30
35920;DHT22;36160;53.370;-6.196;2023-01-20T14:08:13;5.80;76.80
35920;DHT22;36160;53.370;-6.196;2023-01-20T14:10:40;5.90;70.30
35920;DHT22;36160;53.370;-6.196;2023-01-20T14:13:10;5.80;72.40
35920;DHT22;36160;53.370;-6.196;2023-01-20T14:15:37;5.80;76.40
35920;DHT22;36160;53.370;-6.196;2023-01-20T14:18:12;5.80;79.70
35920;DHT22;36160;53.370;-6.196;2023-01-20T14:20:38;5.80;77.80
35920;DHT22;36160;53.370;-6.196;2023-01-20T14:23:30;5.80;83.00
35920;DHT22;36160;53.370;-6.196;2023-01-20T14:26:01;5.90;82.40
35920;DHT22;36160;53.370;-6.196;2023-01-20T14:28:28;5.80;85.00
35920;DHT22;36160;53.370;-6.196;2023-01-20T14:31:16;5.80;85.10
35920;DHT22;36160;53.370;-6.196;2023-01-20T14:34:00;5.80;84.80
35920;DHT22;36160;53.370;-6.196;2023-01-20T14:36:30;5.80;87.50
35920;DHT22;36160;53.370;-6.196;2023-01-20T14:38:59;5.80;89.60
35920;DHT22;36160;53.370;-6.196;2023-01-20T14:41:43;5.80;85.10
35920;DHT22;36160;53.370;-6.196;2023-01-20T14:44:19;5.80;80.80
35920;DHT22;36160;53.370;-6.196;2023-01-20T14:46:47;5.90;79.20
35920;DHT22;36160;53.370;-6.196;2023-01-20T14:49:15;5.90;77.30
35920;DHT22;36160;53.370;-6.196;2023-01-20T14:51:43;5.90;79.50
35920;DHT22;36160;53.370;-6.196;2023-01-20T14:54:29;5.90;81.80
35920;DHT22;36160;53.370;-6.196;2023-01-20T14:56:56;5.80;84.40
35920;DHT22;36160;53.370;-6.196;2023-01-20T14:59:22;5.80;87.70
35920;DHT22;36160;53.370;-6.196;2023-01-20T15:02:00;5.80;84.90
35920;DHT22;36160;53.370;-6.196;2023-01-20T15:04:36;5.80;84.60
35920;DHT22;36160;53.370;-6.196;2023-01-20T15:07:02;5.70;87.30
35920;DHT22;36160;53.370;-6.196;2023-01-20T15:09:29;5.70;88.20
35920;DHT22;36160;53.370;-6.196;2023-01-20T15:15:24;5.80;92.30
35920;DHT22;36160;53.370;-6.196;2023-01-20T15:18:17;5.70;92.00
35920;DHT22;36160;53.370;-6.196;2023-01-20T15:20:49;5.70;95.00
35920;DHT22;36160;53.370;-6.196;2023-01-20T15:25:49;5.70;99.90
35920;DHT22;36160;53.370;-6.196;2023-01-20T15:28:42;5.60;99.90
35920;DHT22;36160;53.370;-6.196;2023-01-20T15:31:12;5.60;99.90
35920;DHT22;36160;53.370;-6.196;2023-01-20T15:33:38;5.50;99.90
35920;DHT22;36160;53.370;-6.196;2023-01-20T15:36:33;5.50;99.90
35920;DHT22;36160;53.370;-6.196;2023-01-20T15:39:01;5.50;99.90
35920;DHT22;36160;53.370;-6.196;2023-01-20T15:41:27;5.50;99.90
35920;DHT22;36160;53.370;-6.196;2023-01-20T15:43:52;5.40;99.90
35920;DHT22;36160;53.370;-6.196;2023-01-20T15:46:18;5.50;99.90
35920;DHT22;36160;53.370;-6.196;2023-01-20T15:48:44;5.50;99.90
35920;DHT22;36160;53.370;-6.196;2023-01-20T15:51:17;5.50;99.90
35920;DHT22;36160;53.370;-6.196;2023-01-20T15:53:45;5.40;99.90
35920;DHT22;36160;53.370;-6.196;2023-01-20T15:56:20;5.40;99.90
35920;DHT22;36160;53.370;-6.196;2023-01-20T15:58:47;5.40;99.90
35920;DHT22;36160;53.370;-6.196;2023-01-20T16:01:16;5.40;99.90
35920;DHT22;36160;53.370;-6.196;2023-01-20T16:03:41;5.40;99.90
35920;DHT22;36160;53.370;-6.196;2023-01-20T16:06:15;5.30;99.90
35920;DHT22;36160;53.370;-6.196;2023-01-20T16:08:43;5.30;99.90
35920;DHT22;36160;53.370;-6.196;2023-01-20T16:11:13;5.30;99.90
35920;DHT22;36160;53.370;-6.196;2023-01-20T16:13:39;5.30;99.90
35920;DHT22;36160;53.370;-6.196;2023-01-20T16:16:16;5.30;99.90
35920;DHT22;36160;53.370;-6.196;2023-01-20T16:18:42;5.20;99.90
35920;DHT22;36160;53.370;-6.196;2023-01-20T16:21:13;5.10;99.90
35920;DHT22;36160;53.370;-6.196;2023-01-20T16:23:40;5.10;99.90
35920;DHT22;36160;53.370;-6.196;2023-01-20T16:26:26;5.10;99.90
35920;DHT22;36160;53.370;-6.196;2023-01-20T16:28:54;5.10;99.90
35920;DHT22;36160;53.370;-6.196;2023-01-20T16:31:21;5.00;99.90
35920;DHT22;36160;53.370;-6.196;2023-01-20T16:33:47;5.10;99.90
35920;DHT22;36160;53.370;-6.196;2023-01-20T16:36:15;4.90;99.90
35920;DHT22;36160;53.370;-6.196;2023-01-20T16:38:41;5.00;99.90
35920;DHT22;36160;53.370;-6.196;2023-01-20T16:41:19;4.90;99.90
35920;DHT22;36160;53.370;-6.196;2023-01-20T16:43:45;4.90;99.90
35920;DHT22;36160;53.370;-6.196;2023-01-20T16:46:31;4.80;99.90
35920;DHT22;36160;53.370;-6.196;2023-01-20T16:48:57;4.80;99.90
35920;DHT22;36160;53.370;-6.196;2023-01-20T16:51:26;4.80;99.90
35920;DHT22;36160;53.370;-6.196;2023-01-20T16:53:54;4.80;99.90
35920;DHT22;36160;53.370;-6.196;2023-01-20T16:56:29;4.80;99.90
35920;DHT22;36160;53.370;-6.196;2023-01-20T16:58:57;4.80;99.90
35920;DHT22;36160;53.370;-6.196;2023-01-20T17:01:24;4.80;99.90
35920;DHT22;36160;53.370;-6.196;2023-01-20T17:03:51;4.70;99.90
35920;DHT22;36160;53.370;-6.196;2023-01-20T17:06:20;4.70;99.90
35920;DHT22;36160;53.370;-6.196;2023-01-20T17:08:48;4.60;99.90
35920;DHT22;36160;53.370;-6.196;2023-01-20T17:11:22;4.60;99.90
35920;DHT22;36160;53.370;-6.196;2023-01-20T17:13:48;4.60;99.90
35920;DHT22;36160;53.370;-6.196;2023-01-20T17:16:15;4.60;99.90
35920;DHT22;36160;53.370;-6.196;2023-01-20T17:18:40;4.40;99.90
35920;DHT22;36160;53.370;-6.196;2023-01-20T17:21:10;4.50;99.90
35920;DHT22;36160;53.370;-6.196;2023-01-20T17:23:36;4.30;99.90
35920;DHT22;36160;53.370;-6.196;2023-01-20T17:26:03;4.30;99.90
35920;DHT22;36160;53.370;-6.196;2023-01-20T17:28:28;4.30;99.90